Federal Polaris — V7VQ3 — position and weather

sailwx.info

Track history (hours):
 
Tides and Currents Weather Stations Pressure Air Temp Water Temp Dewpoint Dewpoint Depression Visibility Wind Speed Wind Dir Waves Ship Positions

Federal Polaris

Last reported at 2017-Feb-18 19:09 UTC. Time now 2017-Feb-23 13:59 UTC.
Position N 38°21' E 121°23'.

Length 182 m; draft 6.4 m.

Type: Ship. MMSI: 538004185.

Date/timePositionNaut miles runAvg speedWind from/ knotsBaromVisibWave heightAir tempDewpointWater temp
2017-Feb-18 19:09N 38°21' E 121°23'712.3
2017-Feb-18 18:33N 38°25' E 121°14'1212.2
2017-Feb-18 17:33N 38°31' E 121°01'1312.7
2017-Feb-18 16:33N 38°36' E 120°46'  
2017-Feb-12 10:30N 38°43' E 120°35'1011.0
2017-Feb-12 09:33N 38°40' E 120°47'1111.2
2017-Feb-12 08:33N 38°35' E 121°00'1111.0
2017-Feb-12 07:33N 38°30' E 121°13'1412.0
2017-Feb-12 06:21N 38°23' E 121°29'  
Track history (hours):
 
Tides and Currents Weather Stations Pressure Air Temp Water Temp Dewpoint Dewpoint Depression Visibility Wind Speed Wind Dir Waves Ship Positions

Federal Polaris

Last reported at 2017-Feb-18 19:09 UTC. Time now 2017-Feb-23 13:59 UTC.
Position N 38°21' E 121°23'.

Length 182 m; draft 6.4 m.

Type: Ship. MMSI: 538004185.

Date/timePositionNaut miles runAvg speedWind from/ knotsBaromVisibWave heightAir tempDewpointWater temp
2017-Feb-18 19:09N 38°21' E 121°23'712.3
2017-Feb-18 18:33N 38°25' E 121°14'1212.2
2017-Feb-18 17:33N 38°31' E 121°01'1312.7
2017-Feb-18 16:33N 38°36' E 120°46'  
2017-Feb-12 10:30N 38°43' E 120°35'1011.0
2017-Feb-12 09:33N 38°40' E 120°47'1111.2
2017-Feb-12 08:33N 38°35' E 121°00'1111.0
2017-Feb-12 07:33N 38°30' E 121°13'1412.0
2017-Feb-12 06:21N 38°23' E 121°29'  

Dump ship's entire track history